Flight Track Log - Related Links

Times and Time Zones

All times are in EDT time to prevent confusion due to time zone crossing. See the EGF3221 flight status page for this flight to view local times or setup timezone preferences in your user account.

Time Position Orientation Groundspeed Altitude Reporting Facility
EDT Latitude Longitude Course Direction KTS MPH feet Rate Location/Type
Thu 07:32:18 AM 36.1200 -94.3500 214° Southwest 225 259 8,000  Level Fort Worth Center
Thu 07:33:20 AM 36.0664 -94.3656 193° South 218 251 9,900 1,463 Climbing Memphis Center
Thu 07:34:21 AM 35.9936 -94.3878 194° South 246 283 11,000 1,131 Climbing Memphis Center
Thu 07:35:22 AM 35.8900 -94.4192 194° South 300 345 12,200 1,082 Climbing Memphis Center
Thu 07:36:00 AM 35.8238 -94.6934 165° South  Level Estimated
Thu 07:36:23 AM 35.7994 -94.4461 194° South 322 371 13,200  Level Memphis Center
Thu 07:37:00 AM 35.7474 -94.7572 214° Southwest  Level Estimated
Thu 07:37:24 AM 35.7014 -94.4753 194° South 344 396 14,300  Level Memphis Center
Thu 07:38:25 AM 35.6017 -94.5050 194° South 360 414 15,300 976 Climbing Memphis Center
Thu 07:39:27 AM 35.4981 -94.5361 194° South 372 428 16,300 976 Climbing Memphis Center
Thu 07:40:28 AM 35.3928 -94.5675 194° South 380 437 17,300 836 Climbing Memphis Center
Thu 07:41:29 AM 35.2950 -94.5964 194° South 385 443 18,000 836 Climbing Memphis Center
Thu 07:42:30 AM 35.1903 -94.6269 193° South 386 444 19,000 984 Climbing Memphis Center
Thu 07:43:31 AM 35.0739 -94.6608 193° South 391 450 20,000 976 Climbing Memphis Center
Thu 07:44:33 AM 34.9764 -94.7194 206° Southwest 397 457 21,000 976 Climbing Memphis Center
Thu 07:45:34 AM 34.8967 -94.8058 222° Southwest 387 445 22,000 1,017 Climbing Memphis Center
Thu 07:46:31 AM 34.8111 -94.8983 222° Southwest 390 449 23,000 1,017 Climbing Fort Worth Center
Thu 07:47:32 AM 34.7272 -94.9886 222° Southwest 390 449 24,000 984 Climbing Fort Worth Center
Thu 07:48:33 AM 34.6467 -95.0742 221° Southwest 388 447 25,000 984 Climbing Fort Worth Center
Thu 07:49:34 AM 34.5669 -95.1592 221° Southwest 386 444 26,000 934 Climbing Fort Worth Center
Thu 07:50:35 AM 34.4869 -95.2442 221° Southwest 385 443 26,900 934 Climbing Fort Worth Center
Thu 07:51:36 AM 34.4094 -95.3269 221° Southwest 376 433 27,900 541 Climbing Fort Worth Center
Thu 07:52:37 AM 34.3294 -95.4111 221° Southwest 376 433 28,000 49 Climbing Fort Worth Center
Thu 07:53:39 AM 34.2461 -95.4986 221° Southwest 391 450 28,000  Level Fort Worth Center
Thu 07:54:40 AM 34.1533 -95.5972 221° Southwest 396 456 28,000  Level Fort Worth Center
Thu 07:55:41 AM 34.0719 -95.6839 221° Southwest 407 468 28,000  Level Fort Worth Center
Thu 07:56:42 AM 33.9850 -95.7731 220° Southwest 410 472 28,000 -49 Level Fort Worth Center
Thu 07:57:44 AM 33.8972 -95.8653 221° Southwest 414 476 27,900 -1,512 Descending Fort Worth Center
Thu 07:58:45 AM 33.8133 -95.9514 220° Southwest 401 461 24,900 -3,443 Descending Fort Worth Center
Thu 07:59:46 AM 33.7172 -96.0508 221° Southwest 393 452 20,900 -3,787 Descending Fort Worth Center
Thu 08:00:47 AM 33.6292 -96.1394 220° Southwest 383 441 17,200 -3,512 Descending Fort Worth Center
Thu 08:01:49 AM 33.5522 -96.2206 221° Southwest 374 430 13,700 -2,927 Descending Fort Worth Center
Thu 08:02:50 AM 33.4814 -96.3011 223° Southwest 356 410 11,200 -1,328 Descending Fort Worth Center
Thu 08:03:51 AM 33.4164 -96.3794 225° Southwest 326 375 11,000 -195 Descending Fort Worth Center
Thu 08:04:53 AM 33.3564 -96.4506 225° Southwest 285 328 10,800 -1,073 Descending Fort Worth Center
Thu 08:05:54 AM 33.3036 -96.5128 225° Southwest 271 312 8,800 -2,195 Descending Fort Worth Center
Thu 08:06:56 AM 33.2714 -96.5914 244° Southwest 265 305 6,300 -1,854 Descending Fort Worth Center
Thu 08:07:57 AM 33.2403 -96.6800 247° West 269 310 5,000 -634 Descending Fort Worth Center
Thu 08:08:59 AM 33.2133 -96.7614 248° West 265 305 5,000  Level Fort Worth Center
Thu 08:10:00 AM 33.1856 -96.8428 248° West 267 307 5,000  Level Fort Worth Center
Thu 08:11:02 AM 33.1578 -96.9250 248° West 245 282 5,000 -146 Level Fort Worth Center
Thu 08:12:03 AM 33.1339 -96.9947 248° West 231 266 4,700 -488 Descending Fort Worth Center
Thu 08:13:05 AM 33.1103 -97.0531 244° Southwest 208 239 4,000 -683 Descending Fort Worth Center
Thu 08:14:06 AM 33.0569 -97.0547 182° South 177 204 3,300 -732 Descending Fort Worth Center
Thu 08:15:08 AM 33.0125 -97.0547 180° South 165 190 2,500 -780 Descending Fort Worth Center
Thu 08:16:09 AM 32.9742 -97.0547 180° South 134 154 1,700 -683 Descending Fort Worth Center
Thu 08:17:11 AM 32.9375 -97.0553 181° South 125 144 1,100 -537 Descending Fort Worth Center
Thu 08:18:12 AM 32.9044 -97.0556 180° South 128 147 600 -492 Descending Fort Worth Center
Thu 08:20:00 AM 32.8968 -97.0380 170° South  Level Estimated

Login

Don't have an account? Register now (free) for customized features, flight alerts, and more!